sensor_id;sensor_type;location;lat;lon;timestamp;P1;durP1;ratioP1;P2;durP2;ratioP2
34403;SDS011;23116;47.660;9.126;2023-05-10T00:01:16;0.17;;;0.15;;
34403;SDS011;23116;47.660;9.126;2023-05-10T00:03:43;0.20;;;0.20;;
34403;SDS011;23116;47.660;9.126;2023-05-10T00:06:10;0.63;;;0.10;;
34403;SDS011;23116;47.660;9.126;2023-05-10T00:08:38;0.15;;;0.10;;
34403;SDS011;23116;47.660;9.126;2023-05-10T00:11:05;0.10;;;0.10;;
34403;SDS011;23116;47.660;9.126;2023-05-10T00:13:32;0.15;;;0.15;;
34403;SDS011;23116;47.660;9.126;2023-05-10T00:15:59;0.10;;;0.10;;
34403;SDS011;23116;47.660;9.126;2023-05-10T00:18:26;0.20;;;0.20;;
34403;SDS011;23116;47.660;9.126;2023-05-10T00:20:53;0.10;;;0.10;;
34403;SDS011;23116;47.660;9.126;2023-05-10T00:23:21;0.50;;;0.17;;
34403;SDS011;23116;47.660;9.126;2023-05-10T00:25:48;0.38;;;0.38;;
34403;SDS011;23116;47.660;9.126;2023-05-10T00:28:15;0.15;;;0.10;;
34403;SDS011;23116;47.660;9.126;2023-05-10T00:30:42;1.25;;;0.40;;
34403;SDS011;23116;47.660;9.126;2023-05-10T00:33:09;0.75;;;0.30;;
34403;SDS011;23116;47.660;9.126;2023-05-10T00:35:37;0.05;;;0.05;;
34403;SDS011;23116;47.660;9.126;2023-05-10T00:38:04;0.40;;;0.25;;
34403;SDS011;23116;47.660;9.126;2023-05-10T00:40:31;1.45;;;0.25;;
34403;SDS011;23116;47.660;9.126;2023-05-10T00:43:00;1.35;;;0.22;;
34403;SDS011;23116;47.660;9.126;2023-05-10T00:45:28;0.35;;;0.35;;
34403;SDS011;23116;47.660;9.126;2023-05-10T00:47:56;0.35;;;0.35;;
34403;SDS011;23116;47.660;9.126;2023-05-10T00:50:25;0.20;;;0.20;;
34403;SDS011;23116;47.660;9.126;2023-05-10T00:52:53;0.20;;;0.20;;
34403;SDS011;23116;47.660;9.126;2023-05-10T00:55:20;2.08;;;0.40;;
34403;SDS011;23116;47.660;9.126;2023-05-10T00:57:47;0.63;;;0.15;;
34403;SDS011;23116;47.660;9.126;2023-05-10T01:00:15;2.72;;;0.10;;
34403;SDS011;23116;47.660;9.126;2023-05-10T01:02:44;0.50;;;0.32;;
34403;SDS011;23116;47.660;9.126;2023-05-10T01:05:12;0.20;;;0.20;;
34403;SDS011;23116;47.660;9.126;2023-05-10T01:07:39;0.57;;;0.30;;
34403;SDS011;23116;47.660;9.126;2023-05-10T01:10:07;0.32;;;0.32;;
34403;SDS011;23116;47.660;9.126;2023-05-10T01:12:37;0.30;;;0.30;;
34403;SDS011;23116;47.660;9.126;2023-05-10T01:15:09;0.10;;;0.10;;
34403;SDS011;23116;47.660;9.126;2023-05-10T01:17:38;0.30;;;0.30;;
34403;SDS011;23116;47.660;9.126;2023-05-10T01:20:08;0.22;;;0.22;;
34403;SDS011;23116;47.660;9.126;2023-05-10T01:31:58;0.20;;;0.20;;
34403;SDS011;23116;47.660;9.126;2023-05-10T01:34:39;1.27;;;0.50;;
34403;SDS011;23116;47.660;9.126;2023-05-10T01:37:20;1.30;;;0.22;;
34403;SDS011;23116;47.660;9.126;2023-05-10T01:40:10;0.27;;;0.10;;
34403;SDS011;23116;47.660;9.126;2023-05-10T01:42:54;0.20;;;0.20;;
34403;SDS011;23116;47.660;9.126;2023-05-10T01:48:37;0.77;;;0.25;;
34403;SDS011;23116;47.660;9.126;2023-05-10T01:51:26;0.57;;;0.35;;
34403;SDS011;23116;47.660;9.126;2023-05-10T01:54:05;0.40;;;0.40;;
34403;SDS011;23116;47.660;9.126;2023-05-10T01:56:33;0.40;;;0.40;;
34403;SDS011;23116;47.660;9.126;2023-05-10T01:59:04;0.40;;;0.25;;
34403;SDS011;23116;47.660;9.126;2023-05-10T02:01:37;1.40;;;0.20;;
34403;SDS011;23116;47.660;9.126;2023-05-10T02:04:06;0.10;;;0.10;;
34403;SDS011;23116;47.660;9.126;2023-05-10T02:06:34;1.67;;;0.30;;
34403;SDS011;23116;47.660;9.126;2023-05-10T02:09:03;0.30;;;0.30;;
34403;SDS011;23116;47.660;9.126;2023-05-10T02:11:32;0.80;;;0.30;;
34403;SDS011;23116;47.660;9.126;2023-05-10T02:13:59;1.75;;;0.35;;
34403;SDS011;23116;47.660;9.126;2023-05-10T02:16:27;0.15;;;0.15;;
34403;SDS011;23116;47.660;9.126;2023-05-10T02:18:55;0.52;;;0.28;;
34403;SDS011;23116;47.660;9.126;2023-05-10T02:21:24;0.40;;;0.30;;
34403;SDS011;23116;47.660;9.126;2023-05-10T02:23:53;0.20;;;0.20;;
34403;SDS011;23116;47.660;9.126;2023-05-10T02:26:21;1.35;;;0.32;;
34403;SDS011;23116;47.660;9.126;2023-05-10T02:28:50;0.38;;;0.38;;
34403;SDS011;23116;47.660;9.126;2023-05-10T02:31:19;0.60;;;0.30;;
34403;SDS011;23116;47.660;9.126;2023-05-10T02:33:48;0.32;;;0.32;;
34403;SDS011;23116;47.660;9.126;2023-05-10T02:36:15;0.55;;;0.50;;
34403;SDS011;23116;47.660;9.126;2023-05-10T02:38:44;0.50;;;0.50;;
34403;SDS011;23116;47.660;9.126;2023-05-10T02:41:13;0.40;;;0.40;;
34403;SDS011;23116;47.660;9.126;2023-05-10T02:43:41;1.83;;;0.40;;
34403;SDS011;23116;47.660;9.126;2023-05-10T02:46:09;1.65;;;0.43;;
34403;SDS011;23116;47.660;9.126;2023-05-10T02:48:36;0.30;;;0.30;;
34403;SDS011;23116;47.660;9.126;2023-05-10T02:51:04;0.80;;;0.60;;
34403;SDS011;23116;47.660;9.126;2023-05-10T02:53:34;0.45;;;0.40;;
34403;SDS011;23116;47.660;9.126;2023-05-10T02:56:04;0.32;;;0.30;;
34403;SDS011;23116;47.660;9.126;2023-05-10T02:58:38;0.55;;;0.55;;
34403;SDS011;23116;47.660;9.126;2023-05-10T03:01:05;0.57;;;0.57;;
34403;SDS011;23116;47.660;9.126;2023-05-10T03:03:33;0.40;;;0.40;;
34403;SDS011;23116;47.660;9.126;2023-05-10T03:06:00;0.40;;;0.40;;
34403;SDS011;23116;47.660;9.126;2023-05-10T03:08:28;0.47;;;0.47;;
34403;SDS011;23116;47.660;9.126;2023-05-10T03:14:35;0.50;;;0.50;;
34403;SDS011;23116;47.660;9.126;2023-05-10T03:17:29;0.30;;;0.30;;
34403;SDS011;23116;47.660;9.126;2023-05-10T03:20:09;3.92;;;0.52;;
34403;SDS011;23116;47.660;9.126;2023-05-10T03:22:47;0.75;;;0.40;;
34403;SDS011;23116;47.660;9.126;2023-05-10T03:25:26;1.02;;;0.50;;
34403;SDS011;23116;47.660;9.126;2023-05-10T03:27:54;0.50;;;0.50;;
34403;SDS011;23116;47.660;9.126;2023-05-10T03:30:24;0.40;;;0.40;;
34403;SDS011;23116;47.660;9.126;2023-05-10T03:32:52;0.60;;;0.60;;
34403;SDS011;23116;47.660;9.126;2023-05-10T03:35:19;0.40;;;0.40;;
34403;SDS011;23116;47.660;9.126;2023-05-10T03:37:46;1.23;;;0.40;;
34403;SDS011;23116;47.660;9.126;2023-05-10T03:40:13;0.75;;;0.20;;
34403;SDS011;23116;47.660;9.126;2023-05-10T03:42:41;0.45;;;0.40;;
34403;SDS011;23116;47.660;9.126;2023-05-10T03:45:08;0.22;;;0.22;;
34403;SDS011;23116;47.660;9.126;2023-05-10T03:47:35;0.30;;;0.30;;
34403;SDS011;23116;47.660;9.126;2023-05-10T03:50:02;0.30;;;0.30;;
34403;SDS011;23116;47.660;9.126;2023-05-10T03:52:30;0.30;;;0.25;;
34403;SDS011;23116;47.660;9.126;2023-05-10T03:54:57;0.30;;;0.30;;
34403;SDS011;23116;47.660;9.126;2023-05-10T03:57:24;0.43;;;0.40;;
34403;SDS011;23116;47.660;9.126;2023-05-10T03:59:51;0.30;;;0.25;;
34403;SDS011;23116;47.660;9.126;2023-05-10T04:02:18;0.40;;;0.40;;
34403;SDS011;23116;47.660;9.126;2023-05-10T04:04:45;0.20;;;0.20;;
34403;SDS011;23116;47.660;9.126;2023-05-10T04:07:13;0.22;;;0.22;;
34403;SDS011;23116;47.660;9.126;2023-05-10T04:09:40;0.40;;;0.40;;
34403;SDS011;23116;47.660;9.126;2023-05-10T04:12:07;0.43;;;0.43;;
34403;SDS011;23116;47.660;9.126;2023-05-10T04:14:35;0.40;;;0.32;;
34403;SDS011;23116;47.660;9.126;2023-05-10T04:17:02;0.30;;;0.28;;
34403;SDS011;23116;47.660;9.126;2023-05-10T04:19:32;0.30;;;0.30;;
34403;SDS011;23116;47.660;9.126;2023-05-10T04:22:00;0.68;;;0.57;;
34403;SDS011;23116;47.660;9.126;2023-05-10T04:24:29;0.30;;;0.30;;
34403;SDS011;23116;47.660;9.126;2023-05-10T04:26:56;0.28;;;0.28;;
34403;SDS011;23116;47.660;9.126;2023-05-10T04:29:23;0.40;;;0.40;;
34403;SDS011;23116;47.660;9.126;2023-05-10T04:31:50;0.43;;;0.43;;
34403;SDS011;23116;47.660;9.126;2023-05-10T04:34:19;0.50;;;0.50;;
34403;SDS011;23116;47.660;9.126;2023-05-10T04:36:47;0.30;;;0.30;;
34403;SDS011;23116;47.660;9.126;2023-05-10T04:39:14;0.43;;;0.43;;
34403;SDS011;23116;47.660;9.126;2023-05-10T04:41:42;0.30;;;0.30;;
34403;SDS011;23116;47.660;9.126;2023-05-10T04:44:09;0.30;;;0.30;;
34403;SDS011;23116;47.660;9.126;2023-05-10T04:46:36;0.50;;;0.50;;
34403;SDS011;23116;47.660;9.126;2023-05-10T04:49:03;0.40;;;0.40;;
34403;SDS011;23116;47.660;9.126;2023-05-10T04:51:30;1.13;;;0.75;;
34403;SDS011;23116;47.660;9.126;2023-05-10T04:53:57;0.40;;;0.40;;
34403;SDS011;23116;47.660;9.126;2023-05-10T04:56:24;0.45;;;0.30;;
34403;SDS011;23116;47.660;9.126;2023-05-10T04:58:51;0.80;;;0.47;;
34403;SDS011;23116;47.660;9.126;2023-05-10T05:01:18;1.92;;;0.70;;
34403;SDS011;23116;47.660;9.126;2023-05-10T05:03:46;1.35;;;0.98;;
34403;SDS011;23116;47.660;9.126;2023-05-10T05:06:13;0.40;;;0.40;;
34403;SDS011;23116;47.660;9.126;2023-05-10T05:08:40;0.63;;;0.30;;
34403;SDS011;23116;47.660;9.126;2023-05-10T05:11:07;1.65;;;0.65;;
34403;SDS011;23116;47.660;9.126;2023-05-10T05:13:35;0.40;;;0.30;;
34403;SDS011;23116;47.660;9.126;2023-05-10T05:16:02;0.82;;;0.38;;
34403;SDS011;23116;47.660;9.126;2023-05-10T05:18:30;0.63;;;0.52;;
34403;SDS011;23116;47.660;9.126;2023-05-10T05:20:57;0.77;;;0.50;;
34403;SDS011;23116;47.660;9.126;2023-05-10T05:23:24;1.83;;;0.60;;
34403;SDS011;23116;47.660;9.126;2023-05-10T05:25:52;0.68;;;0.60;;
34403;SDS011;23116;47.660;9.126;2023-05-10T05:28:22;1.10;;;0.55;;
34403;SDS011;23116;47.660;9.126;2023-05-10T05:30:49;0.68;;;0.68;;
34403;SDS011;23116;47.660;9.126;2023-05-10T05:33:17;0.50;;;0.50;;
34403;SDS011;23116;47.660;9.126;2023-05-10T05:35:44;0.75;;;0.70;;
34403;SDS011;23116;47.660;9.126;2023-05-10T05:38:15;1.00;;;0.70;;
34403;SDS011;23116;47.660;9.126;2023-05-10T05:40:43;0.85;;;0.68;;
34403;SDS011;23116;47.660;9.126;2023-05-10T05:43:10;0.60;;;0.60;;
34403;SDS011;23116;47.660;9.126;2023-05-10T05:45:38;1.77;;;0.50;;
34403;SDS011;23116;47.660;9.126;2023-05-10T05:48:05;0.40;;;0.40;;
34403;SDS011;23116;47.660;9.126;2023-05-10T05:50:32;2.08;;;0.50;;
34403;SDS011;23116;47.660;9.126;2023-05-10T05:52:59;0.93;;;0.68;;
34403;SDS011;23116;47.660;9.126;2023-05-10T05:55:27;0.55;;;0.50;;
34403;SDS011;23116;47.660;9.126;2023-05-10T05:57:56;0.40;;;0.40;;
34403;SDS011;23116;47.660;9.126;2023-05-10T06:00:23;0.30;;;0.30;;
34403;SDS011;23116;47.660;9.126;2023-05-10T06:02:51;0.50;;;0.25;;
34403;SDS011;23116;47.660;9.126;2023-05-10T06:05:18;1.52;;;0.47;;
34403;SDS011;23116;47.660;9.126;2023-05-10T06:07:45;0.43;;;0.43;;
34403;SDS011;23116;47.660;9.126;2023-05-10T06:10:13;1.13;;;0.85;;
34403;SDS011;23116;47.660;9.126;2023-05-10T06:12:43;2.15;;;0.45;;
34403;SDS011;23116;47.660;9.126;2023-05-10T06:15:10;1.85;;;0.55;;
34403;SDS011;23116;47.660;9.126;2023-05-10T06:17:37;1.48;;;0.43;;
34403;SDS011;23116;47.660;9.126;2023-05-10T06:20:05;0.50;;;0.50;;
34403;SDS011;23116;47.660;9.126;2023-05-10T06:22:33;2.10;;;0.40;;
34403;SDS011;23116;47.660;9.126;2023-05-10T06:25:00;0.40;;;0.40;;
34403;SDS011;23116;47.660;9.126;2023-05-10T06:27:27;0.70;;;0.60;;
34403;SDS011;23116;47.660;9.126;2023-05-10T06:29:54;7.88;;;1.30;;
34403;SDS011;23116;47.660;9.126;2023-05-10T06:32:21;0.60;;;0.52;;
34403;SDS011;23116;47.660;9.126;2023-05-10T06:34:48;2.08;;;0.43;;
34403;SDS011;23116;47.660;9.126;2023-05-10T06:37:16;0.80;;;0.63;;
34403;SDS011;23116;47.660;9.126;2023-05-10T06:39:43;8.32;;;0.63;;
34403;SDS011;23116;47.660;9.126;2023-05-10T06:42:10;0.60;;;0.60;;
34403;SDS011;23116;47.660;9.126;2023-05-10T06:44:37;0.50;;;0.40;;
34403;SDS011;23116;47.660;9.126;2023-05-10T06:47:04;2.92;;;0.70;;
34403;SDS011;23116;47.660;9.126;2023-05-10T06:49:31;0.70;;;0.57;;
34403;SDS011;23116;47.660;9.126;2023-05-10T06:51:58;0.38;;;0.38;;
34403;SDS011;23116;47.660;9.126;2023-05-10T06:54:25;1.08;;;0.40;;
34403;SDS011;23116;47.660;9.126;2023-05-10T06:56:52;0.52;;;0.38;;
34403;SDS011;23116;47.660;9.126;2023-05-10T06:59:19;0.45;;;0.40;;
34403;SDS011;23116;47.660;9.126;2023-05-10T07:01:47;0.30;;;0.30;;
34403;SDS011;23116;47.660;9.126;2023-05-10T07:04:17;0.52;;;0.50;;
34403;SDS011;23116;47.660;9.126;2023-05-10T07:06:44;0.68;;;0.40;;
34403;SDS011;23116;47.660;9.126;2023-05-10T07:09:11;0.70;;;0.63;;
34403;SDS011;23116;47.660;9.126;2023-05-10T07:11:38;0.38;;;0.30;;
34403;SDS011;23116;47.660;9.126;2023-05-10T07:14:06;0.38;;;0.30;;
34403;SDS011;23116;47.660;9.126;2023-05-10T07:16:33;0.43;;;0.43;;
34403;SDS011;23116;47.660;9.126;2023-05-10T07:19:00;0.30;;;0.30;;
34403;SDS011;23116;47.660;9.126;2023-05-10T07:21:27;2.28;;;0.50;;
34403;SDS011;23116;47.660;9.126;2023-05-10T07:23:54;0.57;;;0.50;;
34403;SDS011;23116;47.660;9.126;2023-05-10T07:26:22;0.85;;;0.50;;
34403;SDS011;23116;47.660;9.126;2023-05-10T07:28:49;0.73;;;0.45;;
34403;SDS011;23116;47.660;9.126;2023-05-10T07:31:16;0.57;;;0.40;;
34403;SDS011;23116;47.660;9.126;2023-05-10T07:33:43;0.30;;;0.30;;
34403;SDS011;23116;47.660;9.126;2023-05-10T07:36:11;0.22;;;0.20;;
34403;SDS011;23116;47.660;9.126;2023-05-10T07:38:38;1.55;;;0.60;;
34403;SDS011;23116;47.660;9.126;2023-05-10T07:41:05;0.65;;;0.52;;
34403;SDS011;23116;47.660;9.126;2023-05-10T07:43:32;0.90;;;0.50;;
34403;SDS011;23116;47.660;9.126;2023-05-10T07:45:59;0.90;;;0.90;;
34403;SDS011;23116;47.660;9.126;2023-05-10T07:48:26;0.45;;;0.43;;
34403;SDS011;23116;47.660;9.126;2023-05-10T07:50:54;0.73;;;0.57;;
34403;SDS011;23116;47.660;9.126;2023-05-10T07:53:21;0.38;;;0.38;;
34403;SDS011;23116;47.660;9.126;2023-05-10T07:55:51;0.50;;;0.50;;
34403;SDS011;23116;47.660;9.126;2023-05-10T07:58:23;1.20;;;0.20;;
34403;SDS011;23116;47.660;9.126;2023-05-10T08:00:50;0.17;;;0.17;;
34403;SDS011;23116;47.660;9.126;2023-05-10T08:03:18;1.00;;;0.47;;
34403;SDS011;23116;47.660;9.126;2023-05-10T08:05:45;0.40;;;0.40;;
34403;SDS011;23116;47.660;9.126;2023-05-10T08:08:12;0.32;;;0.20;;
34403;SDS011;23116;47.660;9.126;2023-05-10T08:10:42;0.32;;;0.20;;
34403;SDS011;23116;47.660;9.126;2023-05-10T08:13:10;0.80;;;0.30;;
34403;SDS011;23116;47.660;9.126;2023-05-10T08:15:37;2.42;;;0.60;;
34403;SDS011;23116;47.660;9.126;2023-05-10T08:18:04;2.15;;;0.50;;
34403;SDS011;23116;47.660;9.126;2023-05-10T08:20:31;0.30;;;0.30;;
34403;SDS011;23116;47.660;9.126;2023-05-10T08:22:58;0.50;;;0.40;;
34403;SDS011;23116;47.660;9.126;2023-05-10T08:25:25;1.08;;;0.40;;
34403;SDS011;23116;47.660;9.126;2023-05-10T08:27:52;0.70;;;0.30;;
34403;SDS011;23116;47.660;9.126;2023-05-10T08:30:19;1.75;;;0.30;;
34403;SDS011;23116;47.660;9.126;2023-05-10T08:32:46;0.22;;;0.22;;
34403;SDS011;23116;47.660;9.126;2023-05-10T08:35:14;0.38;;;0.38;;
34403;SDS011;23116;47.660;9.126;2023-05-10T08:37:41;0.80;;;0.40;;
34403;SDS011;23116;47.660;9.126;2023-05-10T08:40:08;0.93;;;0.30;;
34403;SDS011;23116;47.660;9.126;2023-05-10T08:42:40;0.55;;;0.40;;
34403;SDS011;23116;47.660;9.126;2023-05-10T08:45:23;0.38;;;0.38;;
34403;SDS011;23116;47.660;9.126;2023-05-10T08:47:52;1.02;;;0.40;;
34403;SDS011;23116;47.660;9.126;2023-05-10T08:50:20;1.30;;;0.47;;
34403;SDS011;23116;47.660;9.126;2023-05-10T08:52:47;2.33;;;0.60;;
34403;SDS011;23116;47.660;9.126;2023-05-10T08:55:15;2.40;;;0.60;;
34403;SDS011;23116;47.660;9.126;2023-05-10T08:57:43;1.75;;;0.93;;
34403;SDS011;23116;47.660;9.126;2023-05-10T09:00:10;1.17;;;0.40;;
34403;SDS011;23116;47.660;9.126;2023-05-10T09:02:38;0.47;;;0.47;;
34403;SDS011;23116;47.660;9.126;2023-05-10T09:05:07;0.40;;;0.35;;
34403;SDS011;23116;47.660;9.126;2023-05-10T09:07:35;0.50;;;0.50;;
34403;SDS011;23116;47.660;9.126;2023-05-10T09:10:04;0.50;;;0.50;;
34403;SDS011;23116;47.660;9.126;2023-05-10T09:12:32;0.47;;;0.47;;
34403;SDS011;23116;47.660;9.126;2023-05-10T09:14:59;0.82;;;0.73;;
34403;SDS011;23116;47.660;9.126;2023-05-10T09:17:27;10.55;;;1.27;;
34403;SDS011;23116;47.660;9.126;2023-05-10T09:19:59;6.53;;;2.00;;
34403;SDS011;23116;47.660;9.126;2023-05-10T09:22:30;21.70;;;2.22;;
34403;SDS011;23116;47.660;9.126;2023-05-10T09:25:08;8.65;;;1.38;;
34403;SDS011;23116;47.660;9.126;2023-05-10T09:27:46;3.85;;;1.10;;
34403;SDS011;23116;47.660;9.126;2023-05-10T09:30:26;0.68;;;0.60;;
34403;SDS011;23116;47.660;9.126;2023-05-10T09:32:57;13.65;;;2.00;;
34403;SDS011;23116;47.660;9.126;2023-05-10T09:35:26;3.03;;;1.30;;
34403;SDS011;23116;47.660;9.126;2023-05-10T09:37:56;2.17;;;0.80;;
34403;SDS011;23116;47.660;9.126;2023-05-10T09:40:28;2.17;;;0.77;;
34403;SDS011;23116;47.660;9.126;2023-05-10T09:45:29;3.60;;;0.75;;
34403;SDS011;23116;47.660;9.126;2023-05-10T09:47:58;1.00;;;0.55;;
34403;SDS011;23116;47.660;9.126;2023-05-10T09:50:27;0.63;;;0.60;;
34403;SDS011;23116;47.660;9.126;2023-05-10T09:52:56;2.55;;;0.65;;
34403;SDS011;23116;47.660;9.126;2023-05-10T09:58:04;4.28;;;0.88;;
34403;SDS011;23116;47.660;9.126;2023-05-10T10:00:36;0.80;;;0.68;;
34403;SDS011;23116;47.660;9.126;2023-05-10T10:03:05;1.80;;;0.70;;
34403;SDS011;23116;47.660;9.126;2023-05-10T10:05:43;0.98;;;0.82;;
34403;SDS011;23116;47.660;9.126;2023-05-10T10:08:11;1.70;;;0.63;;
34403;SDS011;23116;47.660;9.126;2023-05-10T10:10:42;0.45;;;0.45;;
34403;SDS011;23116;47.660;9.126;2023-05-10T10:13:11;1.05;;;0.63;;
34403;SDS011;23116;47.660;9.126;2023-05-10T10:15:38;2.83;;;0.93;;
34403;SDS011;23116;47.660;9.126;2023-05-10T10:18:07;1.73;;;0.60;;
34403;SDS011;23116;47.660;9.126;2023-05-10T10:20:37;0.85;;;0.68;;
34403;SDS011;23116;47.660;9.126;2023-05-10T10:23:04;1.40;;;0.70;;
34403;SDS011;23116;47.660;9.126;2023-05-10T10:25:32;0.75;;;0.60;;
34403;SDS011;23116;47.660;9.126;2023-05-10T10:30:59;0.68;;;0.68;;
34403;SDS011;23116;47.660;9.126;2023-05-10T10:33:55;1.92;;;0.60;;
34403;SDS011;23116;47.660;9.126;2023-05-10T10:36:45;1.13;;;0.40;;
34403;SDS011;23116;47.660;9.126;2023-05-10T10:39:12;1.35;;;0.60;;
34403;SDS011;23116;47.660;9.126;2023-05-10T11:03:11;0.63;;;0.57;;
34403;SDS011;23116;47.660;9.126;2023-05-10T11:05:47;1.92;;;0.60;;
34403;SDS011;23116;47.660;9.126;2023-05-10T11:08:26;2.33;;;0.75;;
34403;SDS011;23116;47.660;9.126;2023-05-10T11:19:03;3.67;;;0.88;;
34403;SDS011;23116;47.660;9.126;2023-05-10T11:21:34;1.77;;;0.70;;
34403;SDS011;23116;47.660;9.126;2023-05-10T11:24:29;1.50;;;0.70;;
34403;SDS011;23116;47.660;9.126;2023-05-10T11:26:56;0.88;;;0.50;;
34403;SDS011;23116;47.660;9.126;2023-05-10T11:29:24;1.20;;;0.50;;
34403;SDS011;23116;47.660;9.126;2023-05-10T11:31:51;2.40;;;0.90;;
34403;SDS011;23116;47.660;9.126;2023-05-10T11:34:25;1.38;;;0.60;;
34403;SDS011;23116;47.660;9.126;2023-05-10T11:36:59;5.85;;;1.00;;
34403;SDS011;23116;47.660;9.126;2023-05-10T11:39:30;3.22;;;0.90;;
34403;SDS011;23116;47.660;9.126;2023-05-10T11:41:58;2.05;;;0.80;;
34403;SDS011;23116;47.660;9.126;2023-05-10T11:44:29;2.17;;;0.60;;
34403;SDS011;23116;47.660;9.126;2023-05-10T11:47:00;2.63;;;0.60;;
34403;SDS011;23116;47.660;9.126;2023-05-10T11:49:28;1.02;;;0.60;;
34403;SDS011;23116;47.660;9.126;2023-05-10T11:52:13;2.45;;;0.93;;
34403;SDS011;23116;47.660;9.126;2023-05-10T11:54:53;1.67;;;0.70;;
34403;SDS011;23116;47.660;9.126;2023-05-10T11:57:25;2.20;;;0.80;;
34403;SDS011;23116;47.660;9.126;2023-05-10T11:59:56;1.52;;;0.57;;
34403;SDS011;23116;47.660;9.126;2023-05-10T12:02:23;1.23;;;0.50;;
34403;SDS011;23116;47.660;9.126;2023-05-10T12:04:50;1.33;;;0.43;;
34403;SDS011;23116;47.660;9.126;2023-05-10T12:07:19;1.13;;;0.50;;
34403;SDS011;23116;47.660;9.126;2023-05-10T12:10:06;0.80;;;0.35;;
34403;SDS011;23116;47.660;9.126;2023-05-10T12:12:36;0.85;;;0.50;;
34403;SDS011;23116;47.660;9.126;2023-05-10T12:15:12;1.20;;;0.40;;
34403;SDS011;23116;47.660;9.126;2023-05-10T12:17:50;0.60;;;0.38;;
34403;SDS011;23116;47.660;9.126;2023-05-10T12:20:20;0.73;;;0.40;;
34403;SDS011;23116;47.660;9.126;2023-05-10T12:22:53;0.65;;;0.60;;
34403;SDS011;23116;47.660;9.126;2023-05-10T12:25:23;0.60;;;0.60;;
34403;SDS011;23116;47.660;9.126;2023-05-10T12:27:57;1.02;;;0.40;;
34403;SDS011;23116;47.660;9.126;2023-05-10T12:30:27;1.92;;;0.50;;
34403;SDS011;23116;47.660;9.126;2023-05-10T12:33:14;0.60;;;0.50;;
34403;SDS011;23116;47.660;9.126;2023-05-10T12:38:28;0.55;;;0.40;;
34403;SDS011;23116;47.660;9.126;2023-05-10T12:41:20;0.93;;;0.55;;
34403;SDS011;23116;47.660;9.126;2023-05-10T12:43:46;0.82;;;0.50;;
34403;SDS011;23116;47.660;9.126;2023-05-10T12:46:14;0.45;;;0.45;;
34403;SDS011;23116;47.660;9.126;2023-05-10T12:48:43;0.65;;;0.50;;
34403;SDS011;23116;47.660;9.126;2023-05-10T12:51:11;0.68;;;0.40;;
34403;SDS011;23116;47.660;9.126;2023-05-10T12:53:40;1.23;;;0.60;;
34403;SDS011;23116;47.660;9.126;2023-05-10T12:56:10;1.27;;;0.40;;
34403;SDS011;23116;47.660;9.126;2023-05-10T12:58:38;1.63;;;0.50;;
34403;SDS011;23116;47.660;9.126;2023-05-10T13:01:05;0.57;;;0.43;;
34403;SDS011;23116;47.660;9.126;2023-05-10T13:03:33;0.93;;;0.47;;
34403;SDS011;23116;47.660;9.126;2023-05-10T13:06:00;0.57;;;0.38;;
34403;SDS011;23116;47.660;9.126;2023-05-10T13:08:27;1.00;;;0.30;;
34403;SDS011;23116;47.660;9.126;2023-05-10T13:10:58;1.08;;;0.40;;
34403;SDS011;23116;47.660;9.126;2023-05-10T13:13:26;0.40;;;0.40;;
34403;SDS011;23116;47.660;9.126;2023-05-10T13:15:53;0.63;;;0.40;;
34403;SDS011;23116;47.660;9.126;2023-05-10T13:18:20;0.70;;;0.38;;
34403;SDS011;23116;47.660;9.126;2023-05-10T13:20:49;1.10;;;0.47;;
34403;SDS011;23116;47.660;9.126;2023-05-10T13:23:16;0.70;;;0.40;;
34403;SDS011;23116;47.660;9.126;2023-05-10T13:25:43;0.98;;;0.50;;
34403;SDS011;23116;47.660;9.126;2023-05-10T13:28:10;0.38;;;0.30;;
34403;SDS011;23116;47.660;9.126;2023-05-10T13:30:37;1.05;;;0.40;;
34403;SDS011;23116;47.660;9.126;2023-05-10T13:33:04;0.60;;;0.40;;
34403;SDS011;23116;47.660;9.126;2023-05-10T13:35:31;1.55;;;0.60;;
34403;SDS011;23116;47.660;9.126;2023-05-10T13:37:58;1.42;;;0.50;;
34403;SDS011;23116;47.660;9.126;2023-05-10T13:40:25;0.80;;;0.50;;
34403;SDS011;23116;47.660;9.126;2023-05-10T13:42:53;0.70;;;0.40;;
34403;SDS011;23116;47.660;9.126;2023-05-10T13:45:20;0.40;;;0.30;;
34403;SDS011;23116;47.660;9.126;2023-05-10T13:47:47;0.82;;;0.40;;
34403;SDS011;23116;47.660;9.126;2023-05-10T13:50:14;2.08;;;0.75;;
34403;SDS011;23116;47.660;9.126;2023-05-10T13:52:43;0.63;;;0.30;;
34403;SDS011;23116;47.660;9.126;2023-05-10T13:55:10;0.32;;;0.30;;
34403;SDS011;23116;47.660;9.126;2023-05-10T13:57:38;0.80;;;0.38;;
34403;SDS011;23116;47.660;9.126;2023-05-10T14:00:05;0.60;;;0.50;;
34403;SDS011;23116;47.660;9.126;2023-05-10T14:02:33;0.30;;;0.30;;
34403;SDS011;23116;47.660;9.126;2023-05-10T14:05:01;0.82;;;0.35;;
34403;SDS011;23116;47.660;9.126;2023-05-10T14:07:28;1.35;;;0.45;;
34403;SDS011;23116;47.660;9.126;2023-05-10T14:09:55;1.45;;;0.40;;
34403;SDS011;23116;47.660;9.126;2023-05-10T14:12:22;0.40;;;0.40;;
34403;SDS011;23116;47.660;9.126;2023-05-10T14:14:50;0.82;;;0.40;;
34403;SDS011;23116;47.660;9.126;2023-05-10T14:17:17;1.20;;;0.30;;
34403;SDS011;23116;47.660;9.126;2023-05-10T14:19:44;0.88;;;0.50;;
34403;SDS011;23116;47.660;9.126;2023-05-10T14:22:11;1.60;;;0.40;;
34403;SDS011;23116;47.660;9.126;2023-05-10T14:24:38;0.88;;;0.43;;
34403;SDS011;23116;47.660;9.126;2023-05-10T14:27:05;0.65;;;0.50;;
34403;SDS011;23116;47.660;9.126;2023-05-10T14:29:33;0.65;;;0.38;;
34403;SDS011;23116;47.660;9.126;2023-05-10T14:32:00;0.75;;;0.30;;
34403;SDS011;23116;47.660;9.126;2023-05-10T14:34:27;0.68;;;0.30;;
34403;SDS011;23116;47.660;9.126;2023-05-10T14:36:54;0.30;;;0.30;;
34403;SDS011;23116;47.660;9.126;2023-05-10T14:39:22;1.50;;;0.70;;
34403;SDS011;23116;47.660;9.126;2023-05-10T14:41:49;0.35;;;0.30;;
34403;SDS011;23116;47.660;9.126;2023-05-10T14:44:17;0.93;;;0.45;;
34403;SDS011;23116;47.660;9.126;2023-05-10T14:46:44;0.80;;;0.40;;
34403;SDS011;23116;47.660;9.126;2023-05-10T14:49:12;1.02;;;0.45;;
34403;SDS011;23116;47.660;9.126;2023-05-10T14:51:42;0.30;;;0.30;;
34403;SDS011;23116;47.660;9.126;2023-05-10T14:54:10;0.68;;;0.30;;
34403;SDS011;23116;47.660;9.126;2023-05-10T14:56:37;0.57;;;0.38;;
34403;SDS011;23116;47.660;9.126;2023-05-10T14:59:06;0.80;;;0.47;;
34403;SDS011;23116;47.660;9.126;2023-05-10T15:01:33;0.50;;;0.30;;
34403;SDS011;23116;47.660;9.126;2023-05-10T15:04:05;0.80;;;0.40;;
34403;SDS011;23116;47.660;9.126;2023-05-10T15:06:33;0.38;;;0.38;;
34403;SDS011;23116;47.660;9.126;2023-05-10T15:09:02;0.93;;;0.32;;
34403;SDS011;23116;47.660;9.126;2023-05-10T15:11:29;0.80;;;0.57;;
34403;SDS011;23116;47.660;9.126;2023-05-10T15:13:57;2.10;;;0.50;;
34403;SDS011;23116;47.660;9.126;2023-05-10T15:16:24;0.52;;;0.38;;
34403;SDS011;23116;47.660;9.126;2023-05-10T15:18:51;0.55;;;0.55;;
34403;SDS011;23116;47.660;9.126;2023-05-10T15:21:18;0.95;;;0.30;;
34403;SDS011;23116;47.660;9.126;2023-05-10T15:23:45;0.70;;;0.52;;
34403;SDS011;23116;47.660;9.126;2023-05-10T15:26:13;1.02;;;0.40;;
34403;SDS011;23116;47.660;9.126;2023-05-10T15:28:43;0.95;;;0.50;;
34403;SDS011;23116;47.660;9.126;2023-05-10T15:31:11;1.08;;;0.45;;
34403;SDS011;23116;47.660;9.126;2023-05-10T15:33:38;0.50;;;0.45;;
34403;SDS011;23116;47.660;9.126;2023-05-10T15:36:05;0.52;;;0.50;;
34403;SDS011;23116;47.660;9.126;2023-05-10T15:38:32;1.00;;;0.50;;
34403;SDS011;23116;47.660;9.126;2023-05-10T15:40:59;1.98;;;0.68;;
34403;SDS011;23116;47.660;9.126;2023-05-10T15:43:26;1.10;;;0.47;;
34403;SDS011;23116;47.660;9.126;2023-05-10T15:45:53;1.05;;;0.90;;
34403;SDS011;23116;47.660;9.126;2023-05-10T15:48:20;2.15;;;1.20;;
34403;SDS011;23116;47.660;9.126;2023-05-10T15:50:47;1.58;;;1.00;;
34403;SDS011;23116;47.660;9.126;2023-05-10T15:53:15;0.93;;;0.40;;
34403;SDS011;23116;47.660;9.126;2023-05-10T15:55:42;0.50;;;0.50;;